createdAt,value
2019-05-18T00:00:11.792Z,84.33
2019-05-18T00:02:46.118Z,83.71
2019-05-18T00:05:20.147Z,82.22
2019-05-18T00:07:53.658Z,81.00
2019-05-18T00:10:27.970Z,80.53
2019-05-18T00:13:01.731Z,80.01
2019-05-18T00:15:35.024Z,80.53
2019-05-18T00:18:08.787Z,82.71
2019-05-18T00:20:42.121Z,85.02
2019-05-18T00:23:16.250Z,88.30
2019-05-18T00:25:50.288Z,89.49
2019-05-18T00:28:23.929Z,91.32
2019-05-18T00:31:03.200Z,90.50
2019-05-18T00:33:36.504Z,89.85
2019-05-18T00:36:10.747Z,90.62
2019-05-18T00:38:44.535Z,90.18
2019-05-18T00:41:18.477Z,89.92
2019-05-18T00:43:51.725Z,89.98
2019-05-18T00:46:25.138Z,89.74
2019-05-18T00:48:58.786Z,88.86
2019-05-18T00:51:32.460Z,90.02
2019-05-18T00:54:05.891Z,91.11
2019-05-18T00:56:40.868Z,91.38
2019-05-18T00:59:16.216Z,91.11
2019-05-18T01:01:49.721Z,90.56
2019-05-18T01:04:22.993Z,90.30
2019-05-18T01:06:57.356Z,90.44
2019-05-18T01:09:32.373Z,90.37
2019-05-18T01:12:05.874Z,91.23
2019-05-18T01:14:39.577Z,91.31
2019-05-18T01:17:13.569Z,91.81
2019-05-18T01:19:49.533Z,91.96
2019-05-18T01:22:23.268Z,91.57
2019-05-18T01:24:58.310Z,91.50
2019-05-18T01:27:32.018Z,91.63
2019-05-18T01:30:06.991Z,92.07
2019-05-18T01:32:40.265Z,92.78
2019-05-18T01:35:15.242Z,93.59
2019-05-18T01:37:48.905Z,94.40
2019-05-18T01:40:22.449Z,95.88
2019-05-18T01:42:56.023Z,96.58
2019-05-18T01:45:29.387Z,97.23
2019-05-18T01:48:13.145Z,97.46
2019-05-18T01:50:38.030Z,97.64
2019-05-18T01:53:11.536Z,97.61
2019-05-18T01:55:47.094Z,97.32
2019-05-18T01:58:20.556Z,97.41
2019-05-18T02:00:53.806Z,98.51
2019-05-18T02:03:27.884Z,98.35
2019-05-18T02:06:02.888Z,98.89
2019-05-18T02:08:36.362Z,98.55
2019-05-18T02:11:09.757Z,97.70
2019-05-18T02:13:43.117Z,100.00
2019-05-18T02:16:16.183Z,100.00
2019-05-18T02:18:49.477Z,100.00
2019-05-18T02:21:22.787Z,100.00
2019-05-18T02:23:56.088Z,100.00
2019-05-18T02:26:29.613Z,100.00
2019-05-18T02:29:03.344Z,100.00
2019-05-18T02:31:36.783Z,100.00
2019-05-18T02:34:10.902Z,100.00
2019-05-18T02:36:44.433Z,100.00
2019-05-18T02:39:19.397Z,100.00
2019-05-18T02:41:53.841Z,100.00
2019-05-18T02:44:27.655Z,100.00
2019-05-18T02:47:01.506Z,100.00
2019-05-18T02:49:35.255Z,100.00
2019-05-18T02:52:08.556Z,100.00
2019-05-18T02:54:42.474Z,100.00
2019-05-18T02:57:15.809Z,100.00
2019-05-18T02:59:49.673Z,100.00
2019-05-18T03:02:22.922Z,100.00
2019-05-18T03:04:56.281Z,100.00
2019-05-18T03:07:29.747Z,100.00
2019-05-18T03:10:03.601Z,100.00
2019-05-18T03:12:36.881Z,100.00
2019-05-18T03:15:10.521Z,100.00
2019-05-18T03:17:44.328Z,100.00
2019-05-18T03:20:17.982Z,100.00
2019-05-18T03:22:51.796Z,100.00
2019-05-18T03:25:25.772Z,100.00
2019-05-18T03:27:59.223Z,100.00
2019-05-18T03:30:32.528Z,100.00
2019-05-18T03:33:06.116Z,100.00
2019-05-18T03:35:39.368Z,100.00
2019-05-18T03:38:13.106Z,100.00
2019-05-18T03:40:46.305Z,100.00
2019-05-18T03:43:19.989Z,100.00
2019-05-18T03:45:57.931Z,100.00
2019-05-18T03:48:31.212Z,100.00
2019-05-18T03:51:05.548Z,100.00
2019-05-18T03:53:39.355Z,100.00
2019-05-18T03:56:13.115Z,100.00
2019-05-18T03:58:47.403Z,100.00
2019-05-18T04:01:20.888Z,100.00
2019-05-18T04:03:54.563Z,100.00
2019-05-18T04:06:28.087Z,100.00
2019-05-18T04:09:02.141Z,100.00
2019-05-18T04:11:35.595Z,100.00
2019-05-18T04:14:09.273Z,100.00
2019-05-18T04:16:43.158Z,100.00
2019-05-18T04:19:16.993Z,100.00
2019-05-18T04:21:50.404Z,100.00
2019-05-18T04:24:23.654Z,100.00
2019-05-18T04:26:56.927Z,100.00
2019-05-18T04:29:30.260Z,100.00
2019-05-18T04:32:03.574Z,100.00
2019-05-18T04:34:37.111Z,100.00
2019-05-18T04:37:11.025Z,100.00
2019-05-18T04:39:44.543Z,100.00
2019-05-18T04:42:18.108Z,100.00
2019-05-18T04:44:51.154Z,100.00
2019-05-18T04:47:24.733Z,100.00
2019-05-18T04:50:05.086Z,100.00
2019-05-18T04:52:33.980Z,100.00
2019-05-18T04:55:07.478Z,100.00
2019-05-18T04:57:40.946Z,100.00
2019-05-18T05:00:16.165Z,100.00
2019-05-18T05:02:50.638Z,100.00
2019-05-18T05:05:24.172Z,100.00
2019-05-18T05:07:57.952Z,100.00
2019-05-18T05:10:32.007Z,100.00
2019-05-18T05:13:07.080Z,100.00
2019-05-18T05:15:40.525Z,100.00
2019-05-18T05:18:14.128Z,100.00
2019-05-18T05:20:54.174Z,100.00
2019-05-18T05:23:27.753Z,100.00
2019-05-18T05:26:01.436Z,100.00
2019-05-18T05:28:35.451Z,100.00
2019-05-18T05:31:09.198Z,100.00
2019-05-18T05:33:43.623Z,100.00
2019-05-18T05:36:18.103Z,100.00
2019-05-18T05:38:52.054Z,100.00
2019-05-18T05:41:26.168Z,100.00
2019-05-18T05:44:00.308Z,100.00
2019-05-18T05:46:37.148Z,100.00
2019-05-18T05:49:09.437Z,100.00
2019-05-18T05:51:42.712Z,100.00
2019-05-18T05:54:17.324Z,100.00
2019-05-18T05:56:51.177Z,100.00
2019-05-18T05:59:25.255Z,100.00
2019-05-18T06:01:58.993Z,100.00
2019-05-18T06:04:33.724Z,100.00
2019-05-18T06:07:07.134Z,100.00
2019-05-18T06:09:40.654Z,100.00
2019-05-18T06:12:19.653Z,95.15
2019-05-18T06:14:53.397Z,91.65
2019-05-18T06:17:27.571Z,95.53
2019-05-18T06:20:01.041Z,100.00
2019-05-18T06:22:34.645Z,100.00
2019-05-18T06:25:08.185Z,100.00
2019-05-18T06:27:41.752Z,100.00
2019-05-18T06:30:15.105Z,100.00
2019-05-18T06:32:48.277Z,100.00
2019-05-18T06:35:21.456Z,100.00
2019-05-18T06:37:55.167Z,100.00
2019-05-18T06:40:28.495Z,97.14
2019-05-18T06:43:01.980Z,90.32
2019-05-18T06:45:35.009Z,82.79
2019-05-18T06:48:08.443Z,82.28
2019-05-18T06:50:43.225Z,79.72
2019-05-18T06:53:16.776Z,82.45
2019-05-18T06:55:50.909Z,88.02
2019-05-18T06:58:25.718Z,92.69
2019-05-18T07:01:04.474Z,94.28
2019-05-18T07:03:39.642Z,98.48
2019-05-18T07:06:13.765Z,100.00
2019-05-18T07:08:47.763Z,100.00
2019-05-18T07:11:21.464Z,100.00
2019-05-18T07:13:56.026Z,100.00
2019-05-18T07:16:30.585Z,100.00
2019-05-18T07:19:04.517Z,100.00
2019-05-18T07:21:38.876Z,100.00
2019-05-18T07:24:13.633Z,100.00
2019-05-18T07:26:47.658Z,100.00
2019-05-18T07:29:21.883Z,100.00
2019-05-18T07:31:57.035Z,100.00
2019-05-18T07:34:30.720Z,100.00
2019-05-18T07:37:05.346Z,100.00
2019-05-18T07:39:39.322Z,100.00
2019-05-18T07:42:12.868Z,100.00
2019-05-18T07:44:46.331Z,100.00
2019-05-18T07:47:19.727Z,100.00
2019-05-18T07:49:53.124Z,100.00
2019-05-18T07:52:26.163Z,100.00
2019-05-18T07:55:01.196Z,100.00
2019-05-18T07:57:33.872Z,100.00
2019-05-18T08:00:07.637Z,100.00
2019-05-18T08:02:41.396Z,100.00
2019-05-18T08:05:19.411Z,100.00
2019-05-18T08:07:52.925Z,98.59
2019-05-18T08:10:43.058Z,97.04
2019-05-18T08:13:15.733Z,91.73
2019-05-18T08:15:49.863Z,92.49
2019-05-18T08:18:23.868Z,94.83
2019-05-18T08:20:58.108Z,90.68
2019-05-18T08:23:31.746Z,93.91
2019-05-18T08:26:05.463Z,92.72
2019-05-18T08:28:39.321Z,91.11
2019-05-18T08:31:12.509Z,89.75
2019-05-18T08:33:47.884Z,87.50
2019-05-18T08:36:22.525Z,80.34
2019-05-18T08:38:55.861Z,73.73
2019-05-18T08:41:29.410Z,65.28
2019-05-18T08:44:06.263Z,64.10
2019-05-18T08:46:40.265Z,63.74
2019-05-18T08:49:16.425Z,68.68
2019-05-18T08:51:51.776Z,63.52
2019-05-18T08:54:26.211Z,61.03
2019-05-18T08:57:00.423Z,63.57
2019-05-18T08:59:36.093Z,70.65
2019-05-18T09:02:10.553Z,74.90
2019-05-18T09:04:44.377Z,77.68
2019-05-18T09:07:18.526Z,67.67
2019-05-18T09:09:52.683Z,64.78
2019-05-18T09:12:27.035Z,69.29
2019-05-18T09:15:00.993Z,66.78
2019-05-18T09:17:36.181Z,65.84
2019-05-18T09:20:11.641Z,67.52
2019-05-18T09:22:45.888Z,69.32
2019-05-18T09:25:19.453Z,70.92
2019-05-18T09:27:53.655Z,75.88
2019-05-18T09:30:31.195Z,77.66
2019-05-18T09:33:05.229Z,76.54
2019-05-18T09:35:39.459Z,80.80
2019-05-18T09:38:15.079Z,87.64
2019-05-18T09:40:49.744Z,94.52
2019-05-18T09:43:26.073Z,100.00
2019-05-18T09:46:02.286Z,99.24
2019-05-18T09:48:36.358Z,99.57
2019-05-18T09:51:10.975Z,100.00
2019-05-18T09:53:51.529Z,100.00
2019-05-18T09:56:19.540Z,100.00
2019-05-18T09:58:52.726Z,97.67
2019-05-18T10:01:26.363Z,88.50
2019-05-18T10:04:00.379Z,80.42
2019-05-18T10:06:33.642Z,73.15
2019-05-18T10:09:08.290Z,72.13
2019-05-18T10:11:41.462Z,71.54
2019-05-18T10:14:15.436Z,79.24
2019-05-18T10:16:49.118Z,77.70
2019-05-18T10:19:22.835Z,77.24
2019-05-18T10:21:56.149Z,79.95
2019-05-18T10:24:29.450Z,74.08
2019-05-18T10:27:03.218Z,68.83
2019-05-18T10:29:36.814Z,66.58
2019-05-18T10:32:13.201Z,69.88
2019-05-18T10:34:47.341Z,71.94
2019-05-18T10:37:21.447Z,71.97
2019-05-18T10:39:55.294Z,73.78
2019-05-18T10:42:31.482Z,72.34
2019-05-18T10:45:05.523Z,70.49
2019-05-18T10:47:39.907Z,73.35
2019-05-18T10:50:14.096Z,72.47
2019-05-18T10:52:48.556Z,73.51
2019-05-18T10:55:22.374Z,74.42
2019-05-18T10:57:56.201Z,77.11
2019-05-18T11:00:33.074Z,80.92
2019-05-18T11:03:06.985Z,84.76
2019-05-18T11:05:40.887Z,92.38
2019-05-18T11:08:15.334Z,94.24
2019-05-18T11:10:53.528Z,98.13
2019-05-18T11:13:28.703Z,100.00
2019-05-18T11:16:04.235Z,100.00
2019-05-18T11:18:41.109Z,100.00
2019-05-18T11:21:17.286Z,100.00
2019-05-18T11:23:52.626Z,100.00
2019-05-18T11:26:30.074Z,100.00
2019-05-18T11:29:04.463Z,100.00
2019-05-18T11:31:40.601Z,100.00
2019-05-18T11:34:14.741Z,100.00
2019-05-18T11:36:49.241Z,100.00
2019-05-18T11:39:28.967Z,100.00
2019-05-18T11:42:02.975Z,100.00
2019-05-18T11:44:40.836Z,100.00
2019-05-18T11:47:15.085Z,100.00
2019-05-18T11:49:49.451Z,100.00
2019-05-18T11:52:24.566Z,100.00
2019-05-18T11:54:59.426Z,100.00
2019-05-18T11:57:39.738Z,100.00
2019-05-18T12:00:17.777Z,100.00
2019-05-18T12:02:51.893Z,100.00
2019-05-18T12:05:27.136Z,100.00
2019-05-18T12:08:04.771Z,100.00
2019-05-18T12:10:39.777Z,100.00
2019-05-18T12:13:14.776Z,100.00
2019-05-18T12:15:51.541Z,100.00
2019-05-18T12:18:33.271Z,100.00
2019-05-18T12:21:08.657Z,100.00
2019-05-18T12:23:44.935Z,100.00
2019-05-18T12:26:19.209Z,100.00
2019-05-18T12:28:57.574Z,100.00
2019-05-18T12:31:32.025Z,100.00
2019-05-18T12:34:07.266Z,100.00
2019-05-18T12:36:43.243Z,100.00
2019-05-18T12:39:19.183Z,100.00
2019-05-18T12:41:54.683Z,100.00
2019-05-18T12:44:29.221Z,100.00
2019-05-18T12:47:04.736Z,100.00
2019-05-18T12:49:39.534Z,100.00
2019-05-18T12:52:15.139Z,100.00
2019-05-18T12:54:53.818Z,100.00
2019-05-18T12:57:27.931Z,100.00
2019-05-18T13:00:03.662Z,100.00
2019-05-18T13:02:38.170Z,100.00
2019-05-18T13:05:12.054Z,100.00
2019-05-18T13:07:46.207Z,100.00
2019-05-18T13:10:21.818Z,100.00
2019-05-18T13:12:57.738Z,100.00
2019-05-18T13:15:32.888Z,100.00
2019-05-18T13:18:09.151Z,100.00
2019-05-18T13:20:43.691Z,100.00
2019-05-18T13:23:18.197Z,100.00
2019-05-18T13:25:53.905Z,100.00
2019-05-18T13:28:28.413Z,100.00
2019-05-18T13:31:04.099Z,100.00
2019-05-18T13:33:38.034Z,100.00
2019-05-18T13:36:13.979Z,100.00
2019-05-18T13:38:48.651Z,100.00
2019-05-18T13:41:25.211Z,100.00
2019-05-18T13:44:01.224Z,100.00
2019-05-18T13:46:35.901Z,100.00
2019-05-18T13:49:11.621Z,100.00
2019-05-18T13:51:48.341Z,100.00
2019-05-18T13:54:22.576Z,100.00
2019-05-18T13:56:57.050Z,100.00
2019-05-18T13:59:31.799Z,100.00
2019-05-18T14:02:06.066Z,100.00
2019-05-18T14:04:40.626Z,100.00
2019-05-18T14:07:14.653Z,100.00
2019-05-18T14:09:50.142Z,100.00
2019-05-18T14:12:25.246Z,100.00
2019-05-18T14:14:59.523Z,100.00
2019-05-18T14:17:33.297Z,100.00
2019-05-18T14:20:06.699Z,96.95
2019-05-18T14:22:40.835Z,88.15
2019-05-18T14:25:20.226Z,85.42
2019-05-18T14:27:51.108Z,88.26
2019-05-18T14:30:26.543Z,88.76
2019-05-18T14:33:01.399Z,96.91
2019-05-18T14:35:36.019Z,100.00
2019-05-18T14:38:13.951Z,100.00
2019-05-18T14:40:48.914Z,100.00
2019-05-18T14:43:24.776Z,100.00
2019-05-18T14:45:59.726Z,96.92
2019-05-18T14:48:34.488Z,93.94
2019-05-18T14:51:10.282Z,90.89
2019-05-18T14:53:44.081Z,92.12
2019-05-18T14:56:19.298Z,92.22
2019-05-18T14:58:52.875Z,91.08
2019-05-18T15:01:27.187Z,91.94
2019-05-18T15:04:02.796Z,91.57
2019-05-18T15:06:36.770Z,95.59
2019-05-18T15:09:11.210Z,97.77
2019-05-18T15:11:45.524Z,96.78
2019-05-18T15:14:19.985Z,97.39
2019-05-18T15:16:54.047Z,95.22
2019-05-18T15:19:29.128Z,93.63
2019-05-18T15:22:03.895Z,96.47
2019-05-18T15:24:41.782Z,98.11
2019-05-18T15:27:15.902Z,98.91
2019-05-18T15:29:51.615Z,95.73
2019-05-18T15:32:25.849Z,97.34
2019-05-18T15:35:00.272Z,99.87
2019-05-18T15:37:34.460Z,100.00
2019-05-18T15:40:08.817Z,100.00
2019-05-18T15:42:44.555Z,100.00
2019-05-18T15:45:18.179Z,100.00
2019-05-18T15:47:53.036Z,100.00
2019-05-18T15:50:27.565Z,100.00
2019-05-18T15:53:03.977Z,100.00
2019-05-18T15:55:41.268Z,100.00
2019-05-18T15:58:15.417Z,100.00
2019-05-18T16:00:48.957Z,100.00
2019-05-18T16:03:25.442Z,100.00
2019-05-18T16:05:58.530Z,100.00
2019-05-18T16:08:33.542Z,100.00
2019-05-18T16:11:08.288Z,100.00
2019-05-18T16:13:41.955Z,100.00
2019-05-18T16:16:15.324Z,100.00
2019-05-18T16:18:53.793Z,100.00
2019-05-18T16:21:27.386Z,100.00
2019-05-18T16:24:01.717Z,100.00
2019-05-18T16:26:35.022Z,100.00
2019-05-18T16:29:09.959Z,100.00
2019-05-18T16:31:43.821Z,100.00
2019-05-18T16:34:19.160Z,100.00
2019-05-18T16:36:53.846Z,100.00
2019-05-18T16:39:28.480Z,100.00
2019-05-18T16:42:04.064Z,100.00
2019-05-18T16:44:39.447Z,100.00
2019-05-18T16:47:13.699Z,100.00
2019-05-18T16:49:47.870Z,100.00
2019-05-18T16:52:21.845Z,100.00
2019-05-18T16:54:56.309Z,100.00
2019-05-18T16:57:31.217Z,100.00
2019-05-18T17:00:05.247Z,100.00
2019-05-18T17:02:39.162Z,100.00
2019-05-18T17:05:15.866Z,100.00
2019-05-18T17:07:49.861Z,100.00
2019-05-18T17:10:24.926Z,100.00
2019-05-18T17:13:00.970Z,100.00
2019-05-18T17:15:35.308Z,100.00
2019-05-18T17:18:11.797Z,100.00
2019-05-18T17:20:46.985Z,100.00
2019-05-18T17:23:22.687Z,100.00
2019-05-18T17:25:59.438Z,100.00
2019-05-18T17:28:33.168Z,100.00
2019-05-18T17:31:07.558Z,100.00
2019-05-18T17:33:41.817Z,100.00
2019-05-18T17:36:14.992Z,100.00
2019-05-18T17:38:48.495Z,100.00
2019-05-18T17:41:22.230Z,100.00
2019-05-18T17:43:56.529Z,100.00
2019-05-18T17:46:31.287Z,100.00
2019-05-18T17:49:04.506Z,100.00
2019-05-18T17:51:39.300Z,100.00
2019-05-18T17:54:12.719Z,100.00
2019-05-18T17:56:46.174Z,100.00
2019-05-18T17:59:19.706Z,100.00
2019-05-18T18:01:54.365Z,100.00
2019-05-18T18:04:28.245Z,100.00
2019-05-18T18:07:12.984Z,100.00
2019-05-18T18:09:47.080Z,100.00
2019-05-18T18:12:21.664Z,100.00
2019-05-18T18:14:55.584Z,100.00
2019-05-18T18:17:30.236Z,100.00
2019-05-18T18:20:13.831Z,100.00
2019-05-18T18:22:47.590Z,100.00
2019-05-18T18:25:21.944Z,100.00
2019-05-18T18:27:55.584Z,100.00
2019-05-18T18:30:32.337Z,100.00
2019-05-18T18:33:06.343Z,100.00
2019-05-18T18:35:40.738Z,100.00
2019-05-18T18:38:14.911Z,100.00
2019-05-18T18:40:48.989Z,100.00
2019-05-18T18:43:23.488Z,100.00
2019-05-18T18:45:57.748Z,100.00
2019-05-18T18:48:31.980Z,100.00
2019-05-18T18:51:05.833Z,100.00
2019-05-18T18:53:40.058Z,100.00
2019-05-18T18:56:14.437Z,100.00
2019-05-18T18:58:47.968Z,100.00
2019-05-18T19:01:22.328Z,100.00
2019-05-18T19:03:57.928Z,100.00
2019-05-18T19:06:31.833Z,100.00
2019-05-18T19:09:08.363Z,100.00
2019-05-18T19:11:42.704Z,100.00
2019-05-18T19:14:21.670Z,100.00
2019-05-18T19:16:56.045Z,100.00
2019-05-18T19:19:31.410Z,100.00
2019-05-18T19:22:06.210Z,100.00
2019-05-18T19:24:41.022Z,100.00
2019-05-18T19:27:16.459Z,100.00
2019-05-18T19:29:51.588Z,100.00
2019-05-18T19:32:25.604Z,100.00
2019-05-18T19:34:59.964Z,100.00
2019-05-18T19:37:39.073Z,100.00
2019-05-18T19:40:15.312Z,100.00
2019-05-18T19:42:48.575Z,100.00
2019-05-18T19:45:22.125Z,100.00
2019-05-18T19:47:58.402Z,100.00
2019-05-18T19:50:32.655Z,100.00
2019-05-18T19:53:07.828Z,100.00
2019-05-18T19:55:43.680Z,100.00
2019-05-18T19:58:21.692Z,100.00
2019-05-18T20:00:59.594Z,100.00
2019-05-18T20:03:35.913Z,100.00
2019-05-18T20:06:12.796Z,100.00
2019-05-18T20:08:46.113Z,100.00
2019-05-18T20:11:20.263Z,100.00
2019-05-18T20:13:54.363Z,100.00
2019-05-18T20:16:29.824Z,100.00
2019-05-18T20:19:04.165Z,100.00
2019-05-18T20:21:38.711Z,100.00
2019-05-18T20:24:12.756Z,100.00
2019-05-18T20:26:48.177Z,100.00
2019-05-18T20:29:22.406Z,100.00
2019-05-18T20:31:57.474Z,100.00
2019-05-18T20:34:32.658Z,100.00
2019-05-18T20:37:06.933Z,100.00
2019-05-18T20:39:41.334Z,100.00
2019-05-18T20:42:16.422Z,100.00
2019-05-18T20:44:51.279Z,100.00
2019-05-18T20:47:25.646Z,100.00
2019-05-18T20:50:01.192Z,100.00
2019-05-18T20:52:35.770Z,100.00
2019-05-18T20:55:13.538Z,100.00
2019-05-18T20:57:48.578Z,100.00
2019-05-18T21:00:29.859Z,100.00
2019-05-18T21:03:05.356Z,100.00
2019-05-18T21:05:50.295Z,100.00
2019-05-18T21:08:25.011Z,100.00
2019-05-18T21:10:59.868Z,100.00
2019-05-18T21:13:35.081Z,100.00
2019-05-18T21:16:11.167Z,100.00
2019-05-18T21:18:46.160Z,100.00
2019-05-18T21:21:24.995Z,100.00
2019-05-18T21:23:56.849Z,100.00
2019-05-18T21:26:32.859Z,100.00
2019-05-18T21:29:07.052Z,100.00
2019-05-18T21:31:42.498Z,100.00
2019-05-18T21:34:18.928Z,100.00
2019-05-18T21:36:53.247Z,100.00
2019-05-18T21:39:27.336Z,100.00
2019-05-18T21:42:01.376Z,100.00
2019-05-18T21:44:35.307Z,100.00
2019-05-18T21:47:09.455Z,100.00
2019-05-18T21:49:44.130Z,100.00
2019-05-18T21:52:17.488Z,100.00
2019-05-18T21:54:52.245Z,100.00
2019-05-18T21:57:26.078Z,100.00
2019-05-18T22:00:02.414Z,100.00
2019-05-18T22:02:36.081Z,100.00
2019-05-18T22:05:09.994Z,100.00
2019-05-18T22:07:43.315Z,100.00
2019-05-18T22:10:25.550Z,100.00
2019-05-18T22:12:53.310Z,100.00
2019-05-18T22:15:28.045Z,100.00
2019-05-18T22:18:06.643Z,100.00
2019-05-18T22:20:44.007Z,100.00
2019-05-18T22:23:16.172Z,100.00
2019-05-18T22:25:51.322Z,100.00
2019-05-18T22:28:24.970Z,100.00
2019-05-18T22:30:58.813Z,100.00
2019-05-18T22:33:32.918Z,100.00
2019-05-18T22:36:06.522Z,100.00
2019-05-18T22:38:40.000Z,100.00
2019-05-18T22:41:14.005Z,100.00
2019-05-18T22:43:47.547Z,100.00
2019-05-18T22:46:20.888Z,100.00
2019-05-18T22:48:54.334Z,100.00
2019-05-18T22:51:27.900Z,100.00
2019-05-18T22:54:01.591Z,100.00
2019-05-18T22:56:34.422Z,100.00
2019-05-18T22:59:07.634Z,100.00
2019-05-18T23:01:41.885Z,100.00
2019-05-18T23:04:16.187Z,100.00
2019-05-18T23:06:49.535Z,100.00
2019-05-18T23:09:23.153Z,100.00
2019-05-18T23:11:56.788Z,100.00
2019-05-18T23:14:30.317Z,100.00
2019-05-18T23:17:04.070Z,100.00
2019-05-18T23:19:38.120Z,100.00
2019-05-18T23:22:10.945Z,100.00
2019-05-18T23:24:44.782Z,100.00
2019-05-18T23:27:18.081Z,100.00
2019-05-18T23:29:51.474Z,100.00
2019-05-18T23:32:25.353Z,100.00
2019-05-18T23:34:59.590Z,100.00
2019-05-18T23:37:37.587Z,100.00
2019-05-18T23:40:10.782Z,100.00
2019-05-18T23:42:44.960Z,100.00
2019-05-18T23:45:18.931Z,100.00
2019-05-18T23:47:53.020Z,100.00
2019-05-18T23:50:27.142Z,100.00
2019-05-18T23:53:00.304Z,100.00
2019-05-18T23:55:33.945Z,100.00
2019-05-18T23:58:07.072Z,100.00
